createdAt,value
2022-08-17T00:00:16.582Z,17.70
2022-08-17T00:03:23.053Z,17.65
2022-08-17T00:05:56.704Z,17.57
2022-08-17T00:08:35.313Z,17.50
2022-08-17T00:11:07.256Z,17.44
2022-08-17T00:13:39.905Z,17.40
2022-08-17T00:16:12.067Z,17.38
2022-08-17T00:19:01.245Z,17.37
2022-08-17T00:22:28.698Z,17.34
2022-08-17T00:24:18.694Z,17.31
2022-08-17T00:26:47.164Z,17.28
2022-08-17T00:29:20.016Z,17.26
2022-08-17T00:31:49.438Z,17.29
2022-08-17T00:34:17.974Z,17.31
2022-08-17T00:36:45.823Z,17.34
2022-08-17T00:39:13.806Z,17.36
2022-08-17T00:41:42.160Z,17.36
2022-08-17T00:44:12.224Z,17.36
2022-08-17T00:46:43.879Z,17.36
2022-08-17T00:49:13.206Z,17.37
2022-08-17T00:51:50.372Z,17.38
2022-08-17T00:54:24.897Z,17.37
2022-08-17T00:56:56.765Z,17.34
2022-08-17T00:59:27.928Z,17.21
2022-08-17T01:01:55.815Z,17.13
2022-08-17T01:04:26.463Z,17.10
2022-08-17T01:06:55.962Z,17.05
2022-08-17T01:09:24.113Z,17.01
2022-08-17T01:11:52.417Z,16.97
2022-08-17T01:14:22.313Z,16.93
2022-08-17T01:16:54.080Z,16.88
2022-08-17T01:19:26.177Z,16.83
2022-08-17T01:22:03.176Z,16.80
2022-08-17T01:24:31.248Z,16.77
2022-08-17T01:27:03.970Z,16.76
2022-08-17T01:29:41.276Z,16.75
2022-08-17T01:32:10.493Z,16.75
2022-08-17T01:34:42.775Z,16.75
2022-08-17T01:37:14.383Z,16.75
2022-08-17T01:39:51.995Z,16.74
2022-08-17T01:42:29.701Z,16.74
2022-08-17T01:45:05.273Z,16.73
2022-08-17T01:47:45.366Z,16.73
2022-08-17T01:50:17.820Z,16.72
2022-08-17T01:52:47.796Z,16.73
2022-08-17T01:55:21.530Z,16.71
2022-08-17T01:57:51.347Z,16.67
2022-08-17T02:00:19.426Z,16.62
2022-08-17T02:02:47.622Z,16.61
2022-08-17T02:05:16.566Z,16.62
2022-08-17T02:08:20.113Z,16.63
2022-08-17T02:11:39.645Z,16.67
2022-08-17T02:22:21.044Z,16.70
2022-08-17T02:25:27.645Z,16.63
2022-08-17T02:35:10.629Z,16.44
2022-08-17T02:38:33.035Z,16.38
2022-08-17T02:41:40.646Z,16.34
2022-08-17T02:45:12.520Z,16.28
2022-08-17T02:48:50.254Z,16.22
2022-08-17T02:52:07.628Z,16.20
2022-08-17T02:55:19.649Z,16.21
2022-08-17T02:58:50.724Z,16.28
2022-08-17T03:01:50.680Z,16.36
2022-08-17T03:05:37.715Z,16.43
2022-08-17T03:08:43.640Z,16.50
2022-08-17T03:16:25.669Z,16.62
2022-08-17T03:19:43.142Z,16.64
2022-08-17T03:23:02.776Z,16.57
2022-08-17T03:25:53.124Z,16.48
2022-08-17T03:29:03.104Z,16.45
2022-08-17T03:32:22.159Z,16.42
2022-08-17T03:35:22.589Z,16.38
2022-08-17T03:38:25.699Z,16.35
2022-08-17T03:41:28.047Z,16.34
2022-08-17T03:44:57.787Z,16.35
2022-08-17T03:48:45.211Z,16.35
2022-08-17T03:51:58.466Z,16.33
2022-08-17T03:55:10.349Z,16.34
2022-08-17T03:58:40.642Z,16.39
2022-08-17T04:02:24.417Z,16.44
2022-08-17T04:05:27.625Z,16.50
2022-08-17T04:08:53.141Z,16.54
2022-08-17T04:11:57.710Z,16.57
2022-08-17T04:15:02.856Z,16.62
2022-08-17T04:18:03.089Z,16.68
2022-08-17T04:21:19.696Z,16.73
2022-08-17T04:24:18.165Z,16.79
2022-08-17T04:27:08.048Z,16.88
2022-08-17T04:30:06.229Z,17.00
2022-08-17T04:33:16.967Z,17.12
2022-08-17T04:36:28.659Z,17.30
2022-08-17T04:39:39.807Z,17.42
2022-08-17T04:46:19.901Z,17.54
2022-08-17T04:49:33.670Z,17.55
2022-08-17T04:52:43.724Z,17.54
2022-08-17T04:55:53.641Z,17.51
2022-08-17T04:58:47.727Z,17.48
2022-08-17T05:01:56.650Z,17.44
2022-08-17T05:04:58.081Z,17.46
2022-08-17T05:07:54.685Z,17.50
2022-08-17T05:11:04.674Z,17.55
2022-08-17T05:14:13.651Z,17.66
2022-08-17T05:17:11.231Z,17.76
2022-08-17T05:20:23.901Z,17.82
2022-08-17T05:23:15.709Z,17.90
2022-08-17T05:26:26.634Z,18.00
2022-08-17T05:29:19.656Z,18.11
2022-08-17T05:32:38.256Z,18.22
2022-08-17T05:35:42.755Z,18.31
2022-08-17T05:39:15.813Z,18.40
2022-08-17T05:42:22.691Z,18.48
2022-08-17T05:45:55.104Z,18.56
2022-08-17T05:49:13.704Z,18.59
2022-08-17T05:55:37.723Z,18.73
2022-08-17T05:58:45.584Z,18.78
2022-08-17T06:01:57.672Z,18.85
2022-08-17T06:05:17.527Z,18.92
2022-08-17T06:11:58.747Z,19.07
2022-08-17T06:15:11.762Z,19.18
2022-08-17T06:18:28.864Z,19.31
2022-08-17T06:21:52.624Z,19.45
2022-08-17T06:25:10.213Z,19.62
2022-08-17T06:28:26.702Z,19.83
2022-08-17T06:31:39.746Z,20.08
2022-08-17T06:38:40.654Z,20.66
2022-08-17T06:48:35.702Z,21.52
2022-08-17T06:51:58.704Z,21.75
2022-08-17T06:55:01.639Z,21.94
2022-08-17T06:58:29.784Z,22.17
2022-08-17T07:01:15.294Z,22.27
2022-08-17T07:04:13.220Z,22.38
2022-08-17T07:06:57.172Z,22.52
2022-08-17T07:09:34.113Z,22.65
2022-08-17T07:12:22.106Z,22.79
2022-08-17T07:15:08.033Z,22.98
2022-08-17T07:17:47.869Z,23.16
2022-08-17T07:20:22.416Z,23.28
2022-08-17T07:23:06.649Z,23.29
2022-08-17T07:25:47.244Z,23.17
2022-08-17T07:28:41.465Z,23.03
2022-08-17T07:31:14.069Z,23.12
2022-08-17T07:34:00.890Z,23.17
2022-08-17T07:36:34.998Z,23.27
2022-08-17T07:39:04.267Z,23.42
2022-08-17T07:41:57.840Z,23.51
2022-08-17T07:44:46.997Z,23.58
2022-08-17T07:47:32.206Z,23.64
2022-08-17T07:50:29.832Z,23.82
2022-08-17T07:53:38.057Z,24.05
2022-08-17T07:56:06.279Z,24.10
2022-08-17T07:58:34.279Z,24.12
2022-08-17T08:01:10.397Z,24.24
2022-08-17T08:03:43.888Z,24.34
2022-08-17T08:06:24.805Z,24.35
2022-08-17T08:09:03.849Z,24.35
2022-08-17T08:11:35.775Z,24.37
2022-08-17T08:14:22.757Z,24.40
2022-08-17T08:17:04.228Z,24.44
2022-08-17T08:19:34.602Z,24.47
2022-08-17T08:22:12.066Z,24.48
2022-08-17T08:24:54.436Z,24.50
2022-08-17T08:27:39.308Z,24.59
2022-08-17T08:30:15.659Z,24.65
2022-08-17T08:33:17.520Z,24.66
2022-08-17T08:35:55.892Z,24.65
2022-08-17T08:38:38.603Z,24.68
2022-08-17T08:41:19.354Z,24.74
2022-08-17T08:44:59.769Z,24.84
2022-08-17T08:47:56.418Z,24.96
2022-08-17T08:54:34.654Z,25.13
2022-08-17T08:57:25.427Z,25.31
2022-08-17T09:00:16.862Z,25.42
2022-08-17T09:03:20.096Z,25.49
2022-08-17T09:06:32.243Z,25.55
2022-08-17T09:09:34.431Z,25.61
2022-08-17T09:12:26.074Z,25.70
2022-08-17T09:15:14.963Z,25.70
2022-08-17T09:19:00.248Z,25.75
2022-08-17T09:22:12.204Z,25.68
2022-08-17T09:25:45.191Z,25.90
2022-08-17T09:29:17.108Z,26.05
2022-08-17T09:32:27.813Z,26.24
2022-08-17T09:35:42.756Z,26.47
2022-08-17T09:38:56.151Z,26.47
2022-08-17T09:41:49.477Z,26.55
2022-08-17T09:45:17.769Z,26.54
2022-08-17T09:49:04.980Z,26.64
2022-08-17T09:52:14.872Z,26.63
2022-08-17T09:55:02.055Z,26.82
2022-08-17T09:57:53.403Z,26.73
2022-08-17T10:00:29.440Z,26.61
2022-08-17T10:03:16.430Z,26.60
2022-08-17T10:05:57.093Z,26.66
2022-08-17T10:08:47.716Z,26.49
2022-08-17T10:12:07.154Z,26.63
2022-08-17T10:15:09.473Z,27.04
2022-08-17T10:18:10.667Z,27.11
2022-08-17T10:20:53.720Z,26.97
2022-08-17T10:23:40.727Z,27.23
2022-08-17T10:26:55.419Z,27.17
2022-08-17T10:29:48.910Z,27.55
2022-08-17T10:32:49.564Z,27.50
2022-08-17T10:35:44.430Z,27.73
2022-08-17T10:38:48.830Z,28.00
2022-08-17T10:41:46.054Z,28.27
2022-08-17T10:50:16.185Z,28.25
2022-08-17T10:51:05.845Z,28.42
2022-08-17T10:52:07.530Z,28.17
2022-08-17T10:54:40.811Z,28.36
2022-08-17T10:57:37.167Z,28.45
2022-08-17T11:02:14.040Z,28.88
2022-08-17T11:04:42.437Z,28.87
2022-08-17T11:07:49.230Z,29.00
2022-08-17T11:10:45.520Z,28.88
2022-08-17T11:13:45.044Z,28.83
2022-08-17T11:16:54.460Z,28.89
2022-08-17T11:20:21.932Z,29.01
2022-08-17T11:24:39.435Z,29.36
2022-08-17T11:28:52.847Z,29.71
2022-08-17T11:31:42.565Z,29.82
2022-08-17T11:34:27.883Z,30.13
2022-08-17T11:37:43.733Z,30.35
2022-08-17T11:40:35.211Z,30.26
2022-08-17T11:43:25.319Z,30.53
2022-08-17T11:46:07.492Z,30.67
2022-08-17T11:49:15.230Z,30.75
2022-08-17T11:52:11.807Z,31.01
2022-08-17T12:05:45.506Z,31.98
2022-08-17T12:12:45.499Z,31.38
2022-08-17T12:15:55.785Z,31.51
2022-08-17T12:22:33.574Z,32.76
2022-08-17T12:25:16.119Z,33.28
2022-08-17T12:28:06.913Z,33.65
2022-08-17T12:31:15.256Z,33.64
2022-08-17T12:34:00.464Z,33.96
2022-08-17T12:36:32.787Z,33.88
2022-08-17T12:39:56.679Z,33.91
2022-08-17T12:43:23.967Z,34.14
2022-08-17T12:46:44.366Z,33.70
2022-08-17T12:49:22.462Z,33.70
2022-08-17T12:53:33.869Z,34.13
2022-08-17T12:56:13.474Z,34.41
2022-08-17T12:59:08.976Z,34.10
2022-08-17T13:01:52.020Z,34.23
2022-08-17T13:05:05.989Z,34.07
2022-08-17T13:08:04.921Z,33.96
2022-08-17T13:14:19.757Z,34.02
2022-08-17T13:14:30.387Z,34.17
2022-08-17T13:17:50.547Z,34.06
2022-08-17T13:20:29.486Z,34.01
2022-08-17T13:23:12.623Z,34.40
2022-08-17T13:25:41.988Z,34.31
2022-08-17T13:28:35.580Z,34.06
2022-08-17T13:31:52.764Z,34.34
2022-08-17T13:35:43.475Z,34.79
2022-08-17T13:39:43.425Z,34.78
2022-08-17T13:46:50.531Z,34.83
2022-08-17T13:49:41.853Z,34.86
2022-08-17T13:53:01.505Z,35.31
2022-08-17T13:56:03.283Z,35.20
2022-08-17T13:59:01.215Z,35.42
2022-08-17T14:02:13.290Z,34.77
2022-08-17T14:05:12.765Z,34.74
2022-08-17T14:08:07.514Z,35.16
2022-08-17T14:11:33.332Z,35.09
2022-08-17T14:14:07.810Z,34.73
2022-08-17T14:16:41.852Z,34.79
2022-08-17T14:19:49.220Z,35.52
2022-08-17T14:22:39.403Z,35.95
2022-08-17T14:25:30.713Z,35.76
2022-08-17T14:28:15.004Z,35.76
2022-08-17T14:31:41.083Z,35.99
2022-08-17T14:34:45.322Z,36.05
2022-08-17T14:37:21.037Z,36.20
2022-08-17T14:39:56.008Z,36.10
2022-08-17T14:42:36.264Z,35.63
2022-08-17T14:45:29.607Z,35.37
2022-08-17T14:48:28.826Z,35.65
2022-08-17T14:53:34.123Z,35.48
2022-08-17T14:54:56.068Z,34.60
2022-08-17T14:57:39.628Z,33.42
2022-08-17T15:00:21.001Z,32.54
2022-08-17T15:02:56.493Z,31.95
2022-08-17T15:05:48.609Z,31.69
2022-08-17T15:08:28.374Z,31.17
2022-08-17T15:11:01.280Z,31.19
2022-08-17T15:13:52.372Z,31.26
2022-08-17T15:16:36.342Z,31.56
2022-08-17T15:19:09.914Z,32.01
2022-08-17T15:22:07.106Z,32.73
2022-08-17T15:24:38.708Z,33.40
2022-08-17T15:27:37.238Z,32.84
2022-08-17T15:30:26.546Z,33.14
2022-08-17T15:32:58.932Z,32.90
2022-08-17T15:35:43.999Z,32.11
2022-08-17T15:38:41.947Z,31.79
2022-08-17T15:41:19.892Z,31.42
2022-08-17T15:43:54.812Z,30.45
2022-08-17T15:46:27.057Z,29.29
2022-08-17T15:49:00.173Z,28.34
2022-08-17T15:51:31.813Z,27.00
2022-08-17T15:54:19.325Z,25.98
2022-08-17T15:56:53.741Z,25.12
2022-08-17T15:59:21.630Z,23.81
2022-08-17T16:03:13.202Z,23.12
2022-08-17T16:04:40.805Z,22.57
2022-08-17T16:07:12.459Z,22.18
2022-08-17T16:09:40.790Z,21.86
2022-08-17T16:12:19.464Z,21.70
2022-08-17T16:14:57.935Z,21.60
2022-08-17T16:17:40.150Z,21.95
2022-08-17T16:20:20.832Z,22.66
2022-08-17T16:27:02.813Z,24.06
2022-08-17T16:29:47.878Z,23.90
2022-08-17T16:32:59.553Z,23.76
2022-08-17T16:35:42.853Z,23.65
2022-08-17T16:38:12.426Z,24.02
2022-08-17T16:40:45.501Z,24.57
2022-08-17T16:43:14.128Z,24.93
2022-08-17T16:45:42.848Z,24.97
2022-08-17T16:48:21.965Z,24.85
2022-08-17T16:51:03.278Z,25.09
2022-08-17T16:53:32.502Z,25.40
2022-08-17T16:56:00.520Z,25.56
2022-08-17T16:58:31.458Z,25.54
2022-08-17T17:01:03.156Z,25.53
2022-08-17T17:03:54.127Z,25.38
2022-08-17T17:07:12.064Z,25.31
2022-08-17T17:09:43.893Z,25.14
2022-08-17T17:13:03.014Z,24.84
2022-08-17T17:15:47.833Z,24.53
2022-08-17T17:18:40.193Z,24.23
2022-08-17T17:21:49.802Z,23.81
2022-08-17T17:24:37.709Z,23.49
2022-08-17T17:27:16.267Z,23.23
2022-08-17T17:30:13.337Z,22.97
2022-08-17T17:32:52.671Z,22.70
2022-08-17T17:35:47.096Z,22.51
2022-08-17T17:38:22.380Z,22.29
2022-08-17T17:40:55.131Z,22.13
2022-08-17T17:43:40.187Z,21.94
2022-08-17T17:46:27.560Z,21.78
2022-08-17T17:48:58.278Z,21.63
2022-08-17T17:52:08.501Z,21.49
2022-08-17T17:54:56.749Z,21.37
2022-08-17T17:58:00.751Z,21.26
2022-08-17T18:00:49.522Z,21.13
2022-08-17T18:03:50.436Z,21.02
2022-08-17T18:06:32.935Z,20.98
2022-08-17T18:09:33.967Z,20.93
2022-08-17T18:12:19.062Z,20.86
2022-08-17T18:15:10.538Z,20.81
2022-08-17T18:17:38.730Z,20.76
2022-08-17T18:20:07.099Z,20.75
2022-08-17T18:22:35.045Z,20.71
2022-08-17T18:25:38.070Z,20.66
2022-08-17T18:28:09.107Z,20.64
2022-08-17T18:30:37.177Z,20.60
2022-08-17T18:33:26.586Z,20.57
2022-08-17T18:35:58.899Z,20.54
2022-08-17T18:38:34.304Z,20.49
2022-08-17T18:41:24.325Z,20.43
2022-08-17T18:44:04.027Z,20.36
2022-08-17T18:46:37.797Z,20.29
2022-08-17T18:49:25.824Z,20.23
2022-08-17T18:52:26.195Z,20.18
2022-08-17T18:55:21.561Z,20.14
2022-08-17T18:57:53.488Z,20.11
2022-08-17T19:00:40.541Z,20.08
2022-08-17T19:03:24.251Z,20.07
2022-08-17T19:05:55.670Z,20.09
2022-08-17T19:08:35.951Z,20.10
2022-08-17T19:11:11.611Z,20.12
2022-08-17T19:13:45.901Z,20.15
2022-08-17T19:16:28.120Z,20.19
2022-08-17T19:19:01.778Z,20.22
2022-08-17T19:21:36.506Z,20.25
2022-08-17T19:24:22.940Z,20.27
2022-08-17T19:27:14.055Z,20.30
2022-08-17T19:30:05.500Z,20.30
2022-08-17T19:32:36.475Z,20.26
2022-08-17T19:35:07.213Z,20.24
2022-08-17T19:37:45.766Z,20.21
2022-08-17T19:40:55.079Z,20.20
2022-08-17T19:43:49.471Z,20.20
2022-08-17T19:46:35.559Z,20.17
2022-08-17T19:49:34.498Z,20.12
2022-08-17T19:52:40.952Z,20.03
2022-08-17T19:55:24.879Z,19.96
2022-08-17T19:58:18.904Z,19.91
2022-08-17T20:00:51.694Z,19.84
2022-08-17T20:03:27.605Z,19.80
2022-08-17T20:06:12.692Z,19.80
2022-08-17T20:08:58.439Z,19.82
2022-08-17T20:11:34.162Z,19.84
2022-08-17T20:14:09.858Z,19.89
2022-08-17T20:16:37.877Z,19.93
2022-08-17T20:19:20.883Z,19.97
2022-08-17T20:21:56.554Z,20.00
2022-08-17T20:24:37.912Z,20.00
2022-08-17T20:27:16.458Z,19.99
2022-08-17T20:30:04.015Z,19.97
2022-08-17T20:32:56.105Z,19.95
2022-08-17T20:35:30.195Z,19.98
2022-08-17T20:38:02.315Z,20.02
2022-08-17T20:40:36.538Z,20.03
2022-08-17T20:43:42.906Z,20.00
2022-08-17T20:46:26.708Z,19.96
2022-08-17T20:49:14.706Z,19.92
2022-08-17T20:52:01.209Z,19.87
2022-08-17T20:54:51.865Z,19.85
2022-08-17T20:57:43.869Z,19.84
2022-08-17T21:00:42.641Z,19.78
2022-08-17T21:03:51.192Z,19.71
2022-08-17T21:06:22.245Z,19.64
2022-08-17T21:09:19.176Z,19.61
2022-08-17T21:12:05.345Z,19.59
2022-08-17T21:14:58.992Z,19.58
2022-08-17T21:17:43.047Z,19.57
2022-08-17T21:20:32.691Z,19.59
2022-08-17T21:23:20.466Z,19.61
2022-08-17T21:26:30.458Z,19.62
2022-08-17T21:29:30.084Z,19.67
2022-08-17T21:32:27.992Z,19.72
2022-08-17T21:35:25.772Z,19.79
2022-08-17T21:38:02.342Z,19.83
2022-08-17T21:40:33.227Z,19.84
2022-08-17T21:43:17.752Z,19.84
2022-08-17T21:45:55.768Z,19.82
2022-08-17T21:48:25.719Z,19.79
2022-08-17T21:51:17.603Z,19.74
2022-08-17T21:53:51.855Z,19.63
2022-08-17T21:56:25.973Z,19.54
2022-08-17T21:59:02.815Z,19.47
2022-08-17T22:01:36.163Z,19.42
2022-08-17T22:04:27.167Z,19.42
2022-08-17T22:06:57.197Z,19.37
2022-08-17T22:09:34.210Z,19.32
2022-08-17T22:12:09.122Z,19.27
2022-08-17T22:14:51.646Z,19.26
2022-08-17T22:17:30.058Z,19.26
2022-08-17T22:20:02.331Z,19.25
2022-08-17T22:22:55.836Z,19.27
2022-08-17T22:25:25.819Z,19.31
2022-08-17T22:28:00.224Z,19.36
2022-08-17T22:30:39.122Z,19.38
2022-08-17T22:33:37.783Z,19.41
2022-08-17T22:36:52.943Z,19.41
2022-08-17T22:43:26.004Z,19.44
2022-08-17T22:46:34.794Z,19.43
2022-08-17T22:49:55.301Z,19.39
2022-08-17T22:53:07.826Z,19.34
2022-08-17T23:00:00.799Z,19.24
2022-08-17T23:03:33.728Z,19.17
2022-08-17T23:06:44.787Z,19.11
2022-08-17T23:10:01.018Z,19.09
2022-08-17T23:12:59.073Z,19.06
2022-08-17T23:16:07.307Z,19.02
2022-08-17T23:22:52.312Z,18.91
2022-08-17T23:26:33.562Z,18.87
2022-08-17T23:30:05.789Z,18.86
2022-08-17T23:32:53.740Z,18.87
2022-08-17T23:35:57.858Z,18.89
2022-08-17T23:39:27.653Z,18.88
2022-08-17T23:42:39.804Z,18.86
2022-08-17T23:46:10.285Z,18.84
2022-08-17T23:49:06.078Z,18.82
2022-08-17T23:52:16.915Z,18.77
2022-08-17T23:55:11.800Z,18.71
2022-08-17T23:58:18.735Z,18.62
